createdAt,value
2019-04-01T00:00:59.567Z,3.10
2019-04-01T00:03:29.187Z,1.57
2019-04-01T00:05:59.172Z,2.37
2019-04-01T00:08:28.495Z,2.00
2019-04-01T00:10:57.734Z,1.93
2019-04-01T00:13:26.955Z,2.03
2019-04-01T00:15:56.100Z,1.97
2019-04-01T00:18:25.347Z,1.63
2019-04-01T00:20:54.412Z,2.17
2019-04-01T00:23:23.708Z,2.67
2019-04-01T00:25:53.035Z,3.00
2019-04-01T00:28:22.110Z,1.87
2019-04-01T00:30:52.389Z,3.10
2019-04-01T00:33:21.483Z,2.30
2019-04-01T00:35:50.663Z,1.80
2019-04-01T00:38:19.881Z,1.70
2019-04-01T00:40:49.128Z,2.50
2019-04-01T00:43:19.938Z,1.93
2019-04-01T00:45:50.870Z,2.13
2019-04-01T00:48:20.011Z,1.70
2019-04-01T00:50:49.102Z,1.93
2019-04-01T00:53:18.315Z,2.00
2019-04-01T00:55:47.706Z,1.60
2019-04-01T00:58:16.949Z,1.93
2019-04-01T01:00:46.208Z,1.90
2019-04-01T01:03:15.496Z,1.83
2019-04-01T01:05:44.745Z,1.60
2019-04-01T01:08:14.106Z,1.90
2019-04-01T01:10:43.423Z,1.80
2019-04-01T01:13:12.493Z,1.80
2019-04-01T01:15:41.779Z,2.10
2019-04-01T01:18:10.975Z,1.50
2019-04-01T01:20:40.265Z,1.60
2019-04-01T01:23:09.490Z,1.90
2019-04-01T01:25:38.577Z,2.27
2019-04-01T01:28:07.809Z,2.10
2019-04-01T01:30:37.081Z,2.30
2019-04-01T01:33:06.346Z,2.40
2019-04-01T01:35:35.491Z,2.93
2019-04-01T01:38:04.589Z,2.37
2019-04-01T01:40:33.626Z,2.60
2019-04-01T01:43:02.897Z,2.00
2019-04-01T01:45:35.687Z,1.97
2019-04-01T01:48:04.862Z,2.43
2019-04-01T01:50:34.314Z,1.87
2019-04-01T01:53:03.610Z,2.40
2019-04-01T01:55:32.691Z,2.37
2019-04-01T01:58:02.029Z,2.37
2019-04-01T02:00:31.757Z,2.13
2019-04-01T02:03:01.010Z,2.10
2019-04-01T02:05:30.174Z,2.37
2019-04-01T02:07:59.540Z,2.17
2019-04-01T02:10:28.769Z,2.80
2019-04-01T02:12:57.896Z,3.10
2019-04-01T02:15:26.963Z,2.67
2019-04-01T02:17:56.033Z,2.47
2019-04-01T02:20:25.269Z,1.70
2019-04-01T02:22:54.589Z,2.17
2019-04-01T02:25:23.970Z,2.00
2019-04-01T02:27:53.025Z,1.30
2019-04-01T02:30:22.116Z,2.07
2019-04-01T02:32:51.501Z,1.50
2019-04-01T02:35:20.602Z,1.83
2019-04-01T02:37:49.707Z,1.90
2019-04-01T02:40:22.053Z,2.10
2019-04-01T02:42:50.835Z,2.07
2019-04-01T02:45:20.000Z,1.93
2019-04-01T02:47:49.428Z,2.00
2019-04-01T02:50:18.623Z,2.30
2019-04-01T02:52:47.962Z,2.27
2019-04-01T02:55:17.213Z,2.17
2019-04-01T02:57:46.504Z,1.93
2019-04-01T03:00:15.876Z,1.83
2019-04-01T03:02:45.003Z,2.40
2019-04-01T03:05:14.155Z,1.70
2019-04-01T03:07:43.434Z,1.93
2019-04-01T03:10:12.705Z,2.27
2019-04-01T03:12:41.836Z,2.07
2019-04-01T03:15:10.963Z,1.90
2019-04-01T03:17:40.292Z,2.60
2019-04-01T03:20:10.447Z,1.50
2019-04-01T03:22:39.534Z,1.80
2019-04-01T03:25:08.751Z,1.93
2019-04-01T03:27:37.844Z,1.80
2019-04-01T03:30:07.180Z,2.10
2019-04-01T03:32:43.989Z,2.03
2019-04-01T03:35:07.116Z,2.10
2019-04-01T03:37:37.205Z,2.33
2019-04-01T03:40:06.427Z,2.20
2019-04-01T03:42:35.803Z,1.97
2019-04-01T03:45:05.481Z,2.03
2019-04-01T03:47:34.804Z,2.43
2019-04-01T03:50:04.589Z,2.03
2019-04-01T03:52:33.907Z,2.53
2019-04-01T03:55:03.402Z,2.10
2019-04-01T03:57:32.676Z,2.20
2019-04-01T04:00:01.707Z,1.53
2019-04-01T04:02:31.085Z,2.30
2019-04-01T04:05:00.616Z,2.60
2019-04-01T04:07:29.821Z,2.23
2019-04-01T04:09:58.926Z,2.00
2019-04-01T04:12:33.815Z,2.13
2019-04-01T04:15:04.011Z,1.60
2019-04-01T04:17:33.097Z,2.50
2019-04-01T04:20:02.427Z,2.30
2019-04-01T04:22:31.639Z,2.33
2019-04-01T04:25:01.050Z,2.10
2019-04-01T04:33:52.285Z,1.63
2019-04-01T04:36:21.442Z,1.93
2019-04-01T04:38:50.905Z,2.30
2019-04-01T04:41:20.058Z,2.70
2019-04-01T04:43:49.476Z,3.93
2019-04-01T04:46:21.073Z,3.43
2019-04-01T04:48:49.687Z,2.53
2019-04-01T04:51:20.591Z,2.57
2019-04-01T04:53:49.697Z,1.83
2019-04-01T04:56:18.899Z,2.20
2019-04-01T04:58:48.115Z,2.20
2019-04-01T05:01:17.517Z,1.77
2019-04-01T05:03:46.674Z,1.73
2019-04-01T05:06:16.052Z,2.07
2019-04-01T05:08:45.186Z,2.20
2019-04-01T05:11:14.400Z,2.47
2019-04-01T05:13:43.655Z,2.67
2019-04-01T05:16:12.794Z,2.40
2019-04-01T05:18:42.065Z,3.17
2019-04-01T05:21:12.118Z,4.90
2019-04-01T05:23:41.954Z,4.27
2019-04-01T05:26:11.572Z,4.53
2019-04-01T05:28:41.709Z,4.23
2019-04-01T05:31:14.500Z,4.17
2019-04-01T05:33:54.844Z,4.13
2019-04-01T05:36:15.326Z,4.27
2019-04-01T05:38:45.075Z,22.30
2019-04-01T05:41:14.362Z,102.67
2019-04-01T05:43:43.746Z,194.27
2019-04-01T05:46:12.904Z,706.87
2019-04-01T05:48:42.264Z,805.83
2019-04-01T05:51:11.557Z,999.90
2019-04-01T05:53:40.805Z,999.90
2019-04-01T05:56:10.072Z,999.90
2019-04-01T05:58:39.313Z,999.90
2019-04-01T06:01:10.085Z,997.93
2019-04-01T06:03:39.480Z,999.90
2019-04-01T06:06:08.807Z,999.73
2019-04-01T06:08:38.382Z,999.90
2019-04-01T06:11:07.550Z,921.73
2019-04-01T06:13:36.829Z,966.50
2019-04-01T06:16:05.900Z,902.83
2019-04-01T06:18:35.048Z,986.83
2019-04-01T06:21:04.332Z,999.87
2019-04-01T06:23:33.584Z,999.90
2019-04-01T06:26:03.111Z,999.90
2019-04-01T06:28:32.346Z,999.90
2019-04-01T06:31:01.589Z,999.90
2019-04-01T06:33:30.710Z,999.90
2019-04-01T06:35:59.847Z,999.90
2019-04-01T06:38:29.185Z,999.90
2019-04-01T06:40:58.582Z,999.90
2019-04-01T06:43:27.939Z,999.90
2019-04-01T06:45:57.199Z,999.90
2019-04-01T06:48:27.230Z,999.90
2019-04-01T06:50:56.944Z,954.60
2019-04-01T06:53:26.458Z,938.77
2019-04-01T06:55:56.311Z,953.67
2019-04-01T06:58:25.323Z,965.87
2019-04-01T07:00:55.622Z,998.83
2019-04-01T07:03:25.051Z,999.90
2019-04-01T07:05:54.194Z,999.90
2019-04-01T07:08:23.300Z,999.90
2019-04-01T07:10:53.034Z,999.90
2019-04-01T07:13:22.306Z,999.90
2019-04-01T07:15:52.291Z,988.87
2019-04-01T07:18:21.625Z,993.30
2019-04-01T07:20:50.706Z,985.83
2019-04-01T07:23:19.946Z,953.70
2019-04-01T07:25:49.302Z,987.60
2019-04-01T07:28:21.891Z,986.27
2019-04-01T07:30:51.138Z,974.60
2019-04-01T07:33:20.388Z,993.20
2019-04-01T07:35:49.511Z,999.90
2019-04-01T07:38:18.811Z,999.90
2019-04-01T07:40:48.216Z,999.90
2019-04-01T07:43:17.331Z,999.90
2019-04-01T07:45:46.670Z,995.90
2019-04-01T07:48:16.088Z,999.90
2019-04-01T07:50:45.331Z,997.57
2019-04-01T07:53:14.388Z,970.53
2019-04-01T07:55:43.997Z,999.53
2019-04-01T07:58:13.339Z,993.33
2019-04-01T08:00:42.611Z,999.90
2019-04-01T08:03:11.693Z,986.50
2019-04-01T08:05:40.907Z,961.77
2019-04-01T08:08:10.571Z,999.90
2019-04-01T08:10:39.790Z,983.57
2019-04-01T08:13:09.371Z,957.10
2019-04-01T08:15:38.431Z,999.90
2019-04-01T08:18:07.752Z,999.90
2019-04-01T08:20:37.046Z,999.90
2019-04-01T08:23:06.461Z,971.67
2019-04-01T08:25:35.533Z,958.27
2019-04-01T08:28:04.887Z,999.67
2019-04-01T08:30:34.586Z,989.33
2019-04-01T08:33:03.936Z,999.90
2019-04-01T08:35:33.328Z,999.90
2019-04-01T08:38:02.778Z,999.90
2019-04-01T08:40:31.917Z,999.90
2019-04-01T08:43:00.945Z,999.90
2019-04-01T08:45:30.195Z,999.90
2019-04-01T08:48:00.449Z,999.90
2019-04-01T08:50:29.590Z,999.90
2019-04-01T08:52:58.952Z,999.90
2019-04-01T08:55:28.424Z,999.90
2019-04-01T08:57:57.623Z,999.90
2019-04-01T09:00:26.741Z,999.90
2019-04-01T09:02:55.938Z,999.90
2019-04-01T09:05:25.248Z,999.90
2019-04-01T09:07:54.687Z,999.90
2019-04-01T09:10:23.850Z,999.90
2019-04-01T09:12:54.077Z,999.90
2019-04-01T09:15:23.398Z,999.90
2019-04-01T09:17:52.648Z,999.90
2019-04-01T09:20:21.939Z,999.90
2019-04-01T09:22:51.001Z,999.90
2019-04-01T09:25:20.070Z,999.90
2019-04-01T09:27:49.237Z,999.90
2019-04-01T09:30:18.937Z,999.90
2019-04-01T09:32:48.183Z,999.90
2019-04-01T09:35:17.527Z,999.90
2019-04-01T09:37:46.769Z,999.90
2019-04-01T09:40:15.865Z,999.90
2019-04-01T09:42:44.942Z,999.90
2019-04-01T09:45:14.215Z,995.50
2019-04-01T09:47:43.259Z,999.90
2019-04-01T09:50:12.737Z,999.87
2019-04-01T09:52:41.778Z,999.90
2019-04-01T09:55:11.054Z,999.90
2019-04-01T09:57:40.216Z,999.90
2019-04-01T10:00:10.795Z,999.90
2019-04-01T10:02:40.027Z,999.90
2019-04-01T10:05:10.199Z,999.90
2019-04-01T10:07:40.690Z,988.03
2019-04-01T10:10:10.131Z,999.90
2019-04-01T10:12:39.448Z,938.37
2019-04-01T10:15:09.984Z,989.37
2019-04-01T10:17:39.350Z,999.90
2019-04-01T10:20:08.851Z,999.90
2019-04-01T10:22:38.054Z,930.50
2019-04-01T10:25:07.205Z,954.47
2019-04-01T10:27:36.751Z,890.67
2019-04-01T10:30:07.584Z,999.90
2019-04-01T10:32:37.169Z,974.47
2019-04-01T10:35:06.767Z,999.83
2019-04-01T10:37:35.873Z,999.90
2019-04-01T10:40:06.171Z,840.93
2019-04-01T10:42:36.693Z,744.83
2019-04-01T10:45:06.785Z,850.93
2019-04-01T10:47:36.014Z,794.83
2019-04-01T10:50:06.811Z,825.20
2019-04-01T10:52:36.079Z,854.90
2019-04-01T10:55:05.852Z,826.45
2019-04-01T10:57:35.200Z,847.60
2019-04-01T11:00:05.992Z,958.60
2019-04-01T11:02:35.205Z,849.38
2019-04-01T11:05:05.842Z,972.85
2019-04-01T11:07:34.914Z,750.80
2019-04-01T11:10:05.557Z,848.62
2019-04-01T11:12:34.768Z,882.75
2019-04-01T11:15:05.147Z,999.90
2019-04-01T11:17:36.506Z,601.80
2019-04-01T11:20:08.025Z,825.77
2019-04-01T11:22:37.522Z,642.27
2019-04-01T11:25:07.213Z,928.27
2019-04-01T11:27:36.386Z,815.60
2019-04-01T11:30:07.762Z,818.02
2019-04-01T11:32:37.799Z,850.45
2019-04-01T11:35:07.632Z,665.67
2019-04-01T11:37:37.193Z,647.42
2019-04-01T11:40:11.143Z,613.90
2019-04-01T11:42:40.444Z,624.88
2019-04-01T11:45:09.424Z,795.35
2019-04-01T11:47:38.742Z,931.50
2019-04-01T11:50:08.189Z,744.95
2019-04-01T11:52:38.229Z,796.75
2019-04-01T11:55:09.141Z,982.30
2019-04-01T11:57:38.747Z,592.53
2019-04-01T12:00:12.763Z,542.77
2019-04-01T12:02:41.928Z,605.65
2019-04-01T12:05:11.291Z,524.30
2019-04-01T12:07:40.396Z,660.65
2019-04-01T12:10:09.893Z,686.73
2019-04-01T12:12:38.949Z,644.35
2019-04-01T12:15:11.686Z,541.90
2019-04-01T12:17:41.514Z,548.65
2019-04-01T12:20:10.204Z,637.83
2019-04-01T12:22:40.619Z,499.80
2019-04-01T12:25:10.253Z,498.65
2019-04-01T12:27:39.480Z,574.60
2019-04-01T12:30:08.901Z,511.50
2019-04-01T12:32:38.243Z,487.80
2019-04-01T12:35:08.829Z,535.90
2019-04-01T12:37:38.062Z,541.83
2019-04-01T12:40:08.934Z,608.85
2019-04-01T12:42:38.291Z,545.02
2019-04-01T12:45:07.638Z,509.20
2019-04-01T12:47:36.906Z,607.67
2019-04-01T12:50:07.329Z,630.37
2019-04-01T12:52:36.527Z,541.73
2019-04-01T12:55:06.776Z,599.15
2019-04-01T12:57:36.330Z,563.95
2019-04-01T13:00:07.404Z,587.13
2019-04-01T13:02:55.992Z,666.67
2019-04-01T13:05:25.148Z,648.60
2019-04-01T13:07:54.461Z,893.53
2019-04-01T13:10:48.705Z,674.73
2019-04-01T13:13:17.806Z,842.47
2019-04-01T13:15:47.085Z,999.90
2019-04-01T13:18:16.375Z,904.23
2019-04-01T13:20:45.827Z,746.17
2019-04-01T13:23:15.090Z,989.33
2019-04-01T13:25:44.317Z,905.90
2019-04-01T13:28:13.604Z,679.20
2019-04-01T13:30:43.780Z,852.07
2019-04-01T13:33:13.628Z,639.70
2019-04-01T13:35:42.855Z,529.43
2019-04-01T13:38:13.090Z,701.67
2019-04-01T13:40:42.415Z,695.65
2019-04-01T13:43:12.485Z,687.62
2019-04-01T13:45:42.029Z,690.37
2019-04-01T13:48:11.492Z,646.43
2019-04-01T13:50:40.558Z,746.83
2019-04-01T13:53:09.925Z,607.47
2019-04-01T13:55:39.240Z,658.03
2019-04-01T13:58:08.511Z,616.63
2019-04-01T14:00:37.831Z,662.53
2019-04-01T14:03:07.187Z,585.00
2019-04-01T14:05:36.723Z,646.20
2019-04-01T14:08:06.211Z,641.90
2019-04-01T14:10:35.512Z,612.23
2019-04-01T14:13:04.848Z,684.00
2019-04-01T14:15:34.130Z,694.73
2019-04-01T14:18:03.357Z,861.97
2019-04-01T14:20:32.726Z,774.83
2019-04-01T14:23:02.055Z,730.00
2019-04-01T14:25:34.682Z,944.53
2019-04-01T14:28:02.628Z,761.47
2019-04-01T14:30:31.878Z,736.17
2019-04-01T14:33:01.127Z,642.93
2019-04-01T14:35:30.364Z,653.40
2019-04-01T14:37:59.525Z,650.50
2019-04-01T14:40:32.379Z,569.17
2019-04-01T14:42:59.779Z,724.00
2019-04-01T14:45:29.123Z,592.40
2019-04-01T14:47:58.464Z,901.90
2019-04-01T14:50:27.684Z,812.80
2019-04-01T14:52:56.971Z,826.70
2019-04-01T14:55:26.166Z,779.73
2019-04-01T14:57:55.308Z,723.10
2019-04-01T15:00:24.510Z,779.43
2019-04-01T15:02:53.717Z,886.67
2019-04-01T15:05:22.948Z,735.30
2019-04-01T15:07:52.142Z,855.13
2019-04-01T15:10:21.497Z,742.53
2019-04-01T15:13:04.504Z,808.87
2019-04-01T15:15:21.586Z,865.87
2019-04-01T15:17:50.821Z,876.60
2019-04-01T15:20:20.257Z,779.10
2019-04-01T15:22:49.952Z,999.47
2019-04-01T15:25:19.381Z,979.93
2019-04-01T15:27:48.541Z,865.87
2019-04-01T15:30:17.907Z,999.90
2019-04-01T15:32:47.149Z,887.67
2019-04-01T15:35:16.396Z,829.43
2019-04-01T15:37:45.689Z,886.17
2019-04-01T15:40:15.238Z,773.60
2019-04-01T15:42:44.839Z,880.40
2019-04-01T15:45:14.416Z,679.03
2019-04-01T15:47:43.677Z,805.17
2019-04-01T15:50:27.269Z,999.90
2019-04-01T15:52:43.846Z,999.90
2019-04-01T15:55:13.152Z,950.50
2019-04-01T15:57:42.222Z,999.90
2019-04-01T16:00:11.804Z,925.77
2019-04-01T16:02:41.423Z,981.80
2019-04-01T16:05:10.699Z,999.90
2019-04-01T16:07:41.712Z,921.50
2019-04-01T16:10:10.425Z,895.07
2019-04-01T16:12:39.569Z,968.07
2019-04-01T16:15:09.228Z,973.20
2019-04-01T16:17:38.866Z,986.27
2019-04-01T16:20:08.196Z,999.90
2019-04-01T16:22:37.501Z,999.90
2019-04-01T16:25:07.019Z,942.50
2019-04-01T16:27:36.226Z,841.03
2019-04-01T16:30:06.673Z,947.70
2019-04-01T16:32:36.204Z,931.67
2019-04-01T16:35:06.673Z,838.80
2019-04-01T16:37:35.850Z,902.27
2019-04-01T16:40:05.945Z,993.57
2019-04-01T16:42:35.457Z,999.90
2019-04-01T16:45:06.239Z,979.03
2019-04-01T16:47:35.486Z,930.43
2019-04-01T16:50:06.667Z,705.77
2019-04-01T16:52:36.123Z,783.70
2019-04-01T16:55:06.948Z,759.20
2019-04-01T16:57:36.353Z,738.13
2019-04-01T17:00:07.251Z,802.77
2019-04-01T17:02:36.718Z,801.30
2019-04-01T17:05:06.206Z,787.77
2019-04-01T17:07:35.304Z,799.93
2019-04-01T17:10:06.424Z,735.00
2019-04-01T17:12:35.694Z,829.80
2019-04-01T17:15:05.864Z,748.37
2019-04-01T17:17:36.104Z,912.20
2019-04-01T17:20:06.527Z,741.57
2019-04-01T17:22:36.581Z,840.17
2019-04-01T17:25:07.088Z,809.33
2019-04-01T17:27:37.014Z,838.60
2019-04-01T17:30:07.476Z,888.83
2019-04-01T17:32:37.071Z,841.87
2019-04-01T17:35:07.914Z,905.27
2019-04-01T17:37:38.172Z,870.27
2019-04-01T17:40:09.464Z,926.63
2019-04-01T17:42:39.408Z,832.57
2019-04-01T17:45:11.190Z,875.07
2019-04-01T17:47:40.790Z,913.67
2019-04-01T17:50:10.071Z,949.43
2019-04-01T17:52:39.442Z,975.23
2019-04-01T17:55:08.815Z,924.07
2019-04-01T17:57:38.094Z,967.60
2019-04-01T18:00:08.805Z,987.07
2019-04-01T18:02:38.373Z,977.43
2019-04-01T18:05:09.157Z,999.90
2019-04-01T18:07:38.522Z,995.97
2019-04-01T18:10:07.957Z,984.77
2019-04-01T18:12:37.272Z,971.00
2019-04-01T18:15:06.449Z,967.83
2019-04-01T18:17:35.698Z,963.30
2019-04-01T18:20:06.566Z,946.13
2019-04-01T18:22:35.822Z,930.00
2019-04-01T18:25:05.772Z,900.67
2019-04-01T18:27:35.221Z,931.03
2019-04-01T18:30:06.469Z,935.63
2019-04-01T18:32:36.078Z,923.77
2019-04-01T18:35:06.038Z,891.20
2019-04-01T18:37:35.564Z,916.27
2019-04-01T18:40:06.151Z,893.77
2019-04-01T18:42:35.756Z,882.70
2019-04-01T18:45:06.434Z,882.47
2019-04-01T18:47:38.776Z,909.97
2019-04-01T18:50:06.611Z,887.37
2019-04-01T18:52:38.096Z,934.80
2019-04-01T18:55:08.022Z,889.53
2019-04-01T18:57:37.406Z,923.30
2019-04-01T19:00:08.213Z,892.20
2019-04-01T19:02:37.268Z,908.43
2019-04-01T19:05:07.580Z,904.23
2019-04-01T19:07:36.653Z,901.77
2019-04-01T19:10:06.968Z,928.63
2019-04-01T19:12:36.457Z,919.30
2019-04-01T19:15:25.970Z,913.57
2019-04-01T19:17:55.491Z,918.70
2019-04-01T19:20:24.585Z,923.83
2019-04-01T19:22:53.640Z,919.67
2019-04-01T19:25:23.382Z,890.43
2019-04-01T19:27:52.637Z,911.83
2019-04-01T19:30:21.852Z,923.77
2019-04-01T19:32:52.168Z,905.57
2019-04-01T19:35:33.859Z,951.93
2019-04-01T19:38:02.898Z,966.63
2019-04-01T19:40:31.934Z,949.57
2019-04-01T19:43:03.476Z,967.77
2019-04-01T19:45:31.623Z,949.10
2019-04-01T19:48:00.683Z,957.03
2019-04-01T19:50:31.112Z,946.47
2019-04-01T19:53:02.741Z,969.63
2019-04-01T19:55:31.252Z,962.67
2019-04-01T19:58:00.424Z,956.07
2019-04-01T20:00:30.576Z,959.93
2019-04-01T20:03:00.225Z,999.90
2019-04-01T20:05:29.448Z,964.87
2019-04-01T20:07:58.424Z,983.83
2019-04-01T20:10:28.511Z,973.57
2019-04-01T20:12:57.709Z,999.90
2019-04-01T20:15:26.867Z,999.67
2019-04-01T20:17:55.923Z,993.07
2019-04-01T20:20:25.059Z,982.90
2019-04-01T20:22:54.483Z,999.90
2019-04-01T20:25:23.536Z,979.53
2019-04-01T20:27:52.825Z,999.90
2019-04-01T20:30:22.303Z,967.47
2019-04-01T20:32:51.810Z,999.90
2019-04-01T20:35:23.718Z,999.90
2019-04-01T20:37:52.772Z,998.63
2019-04-01T20:40:21.920Z,980.87
2019-04-01T20:42:51.128Z,999.90
2019-04-01T20:45:20.498Z,989.07
2019-04-01T20:47:50.442Z,999.90
2019-04-01T20:50:19.829Z,986.53
2019-04-01T20:52:50.347Z,983.03
2019-04-01T20:55:19.734Z,955.53
2019-04-01T20:57:48.795Z,999.90
2019-04-01T21:00:18.188Z,981.97
2019-04-01T21:02:47.569Z,999.90
2019-04-01T21:05:16.779Z,999.90
2019-04-01T21:07:47.095Z,984.07
2019-04-01T21:10:16.908Z,999.70
2019-04-01T21:12:46.242Z,994.33
2019-04-01T21:15:15.619Z,999.90
2019-04-01T21:17:44.722Z,990.23
2019-04-01T21:20:13.920Z,999.90
2019-04-01T21:22:43.131Z,999.90
2019-04-01T21:25:12.816Z,968.03
2019-04-01T21:27:43.288Z,999.57
2019-04-01T21:30:12.530Z,975.77
2019-04-01T21:32:41.879Z,999.90
2019-04-01T21:35:11.133Z,994.17
2019-04-01T21:37:40.558Z,996.50
2019-04-01T21:40:10.089Z,989.70
2019-04-01T21:42:39.353Z,999.90
2019-04-01T21:45:08.620Z,999.90
2019-04-01T21:47:38.196Z,985.43
2019-04-01T21:50:07.776Z,999.37
2019-04-01T21:52:37.040Z,999.90
2019-04-01T21:55:08.317Z,999.90
2019-04-01T21:57:37.459Z,960.57
2019-04-01T22:00:08.307Z,999.90
2019-04-01T22:02:39.045Z,999.90
2019-04-01T22:05:10.163Z,995.97
2019-04-01T22:07:39.441Z,999.90
2019-04-01T22:10:08.837Z,999.90
2019-04-01T22:12:38.280Z,980.13
2019-04-01T22:15:08.242Z,999.90
2019-04-01T22:17:37.335Z,999.90
2019-04-01T22:20:07.785Z,999.90
2019-04-01T22:22:37.470Z,975.00
2019-04-01T22:25:07.007Z,999.47
2019-04-01T22:27:36.061Z,999.83
2019-04-01T22:30:07.183Z,999.90
2019-04-01T22:32:38.963Z,999.90
2019-04-01T22:35:08.655Z,999.90
2019-04-01T22:37:38.112Z,999.90
2019-04-01T22:40:07.866Z,999.33
2019-04-01T22:42:37.206Z,998.70
2019-04-01T22:45:07.005Z,999.90
2019-04-01T22:47:36.399Z,999.90
2019-04-01T22:50:06.720Z,999.90
2019-04-01T22:52:36.151Z,999.90
2019-04-01T22:55:05.796Z,999.90
2019-04-01T22:57:35.011Z,999.90
2019-04-01T23:00:05.325Z,999.90
2019-04-01T23:02:36.193Z,999.90
2019-04-01T23:05:06.151Z,999.90
2019-04-01T23:07:35.178Z,999.90
2019-04-01T23:10:05.998Z,999.90
2019-04-01T23:12:35.264Z,999.90
2019-04-01T23:15:06.077Z,999.90
2019-04-01T23:17:35.345Z,999.90
2019-04-01T23:20:05.361Z,999.90
2019-04-01T23:22:34.725Z,995.00
2019-04-01T23:25:04.365Z,983.03
2019-04-01T23:27:33.517Z,990.37
2019-04-01T23:30:04.360Z,999.90
2019-04-01T23:32:34.825Z,999.90
2019-04-01T23:35:05.186Z,999.90
2019-04-01T23:37:34.449Z,990.87
2019-04-01T23:40:04.589Z,996.47
2019-04-01T23:42:33.745Z,999.90
2019-04-01T23:45:03.349Z,988.47
2019-04-01T23:47:32.410Z,987.37
2019-04-01T23:50:01.718Z,969.67
2019-04-01T23:52:30.807Z,999.90
2019-04-01T23:55:00.958Z,999.90
2019-04-01T23:57:30.383Z,999.90
2019-04-01T23:59:59.604Z,955.80
